Time;durP1;ratioP1;P1;durP2;ratioP2;P2;SDS_P1;SDS_P2;PMS_P1;PMS_P2;Temp;Humidity;BMP_temperature;BMP_pressure;BME280_temperature;BME280_humidity;BME280_pressure;Samples;Min_cycle;Max_cycle;Signal;HPM_P1;HPM_P2
2022/06/20 00:00:14;;;;;;;1.03;0.93;;;24.80;57.60;;;;;;5019699;28;20547;-11
2022/06/20 00:02:50;;;;;;;1.73;1.00;;;24.80;56.80;;;;;;5021194;28;20539;-10
2022/06/20 00:05:23;;;;;;;2.40;1.10;;;24.80;56.70;;;;;;5019548;28;20187;-10
2022/06/20 00:07:49;;;;;;;2.83;1.47;;;24.90;56.50;;;;;;5020112;28;20189;-11
2022/06/20 00:10:17;;;;;;;2.17;1.00;;;24.80;56.50;;;;;;5020241;28;20458;-10
2022/06/20 00:12:44;;;;;;;2.30;1.37;;;24.80;56.60;;;;;;5020602;28;20186;-11
2022/06/20 00:15:26;;;;;;;3.17;1.83;;;24.60;56.90;;;;;;5020210;28;20173;-10
2022/06/20 00:17:52;;;;;;;4.00;1.30;;;24.50;57.00;;;;;;5020245;28;20190;-10
2022/06/20 00:20:19;;;;;;;1.93;1.20;;;24.30;57.80;;;;;;5019471;28;20235;-10
2022/06/20 00:22:44;;;;;;;3.73;1.83;;;24.30;57.80;;;;;;5020369;28;20617;-10
2022/06/20 00:25:11;;;;;;;1.50;1.10;;;24.20;58.10;;;;;;5018933;28;20179;-11
2022/06/20 00:27:37;;;;;;;3.37;1.40;;;24.10;58.00;;;;;;5019034;28;20197;-10
2022/06/20 00:30:04;;;;;;;4.03;2.50;;;24.20;57.90;;;;;;5019493;28;20158;-11
2022/06/20 00:32:29;;;;;;;2.70;1.87;;;24.30;57.80;;;;;;5019479;28;20221;-10
2022/06/20 00:34:57;;;;;;;4.53;2.33;;;24.20;57.80;;;;;;5018439;28;20188;-11
2022/06/20 00:37:22;;;;;;;5.97;3.00;;;23.90;58.90;;;;;;5018785;28;20210;-10
2022/06/20 00:39:50;;;;;;;2.33;1.50;;;23.60;60.30;;;;;;5019295;28;20190;-10
2022/06/20 00:42:16;;;;;;;2.97;1.50;;;23.00;64.30;;;;;;5019511;28;20264;-11
2022/06/20 00:44:48;;;;;;;6.33;2.50;;;23.10;64.60;;;;;;5018296;28;20183;-11
2022/06/20 00:47:19;;;;;;;5.73;2.23;;;23.10;64.10;;;;;;5018667;28;20213;-12
2022/06/20 00:50:02;;;;;;;2.47;1.40;;;23.20;64.10;;;;;;5018705;28;20253;-10
2022/06/20 00:52:43;;;;;;;2.37;1.47;;;23.20;63.50;;;;;;5018704;28;20509;-11
2022/06/20 00:55:24;;;;;;;4.03;1.83;;;23.30;62.60;;;;;;5019362;28;20184;-10
2022/06/20 00:58:09;;;;;;;3.27;1.47;;;23.40;62.20;;;;;;5019193;28;20178;-11
2022/06/20 01:00:38;;;;;;;1.37;1.10;;;23.50;61.10;;;;;;5019324;28;20177;-11
2022/06/20 01:03:13;;;;;;;4.53;2.30;;;23.60;60.30;;;;;;5019655;28;20187;-10
2022/06/20 01:05:48;;;;;;;3.60;2.13;;;23.60;61.00;;;;;;5018935;28;20509;-10
2022/06/20 01:08:29;;;;;;;4.23;2.90;;;23.50;61.10;;;;;;5019459;28;20252;-10
2022/06/20 01:10:59;;;;;;;5.93;2.07;;;23.50;61.50;;;;;;5018771;28;20252;-10
2022/06/20 01:13:26;;;;;;;5.20;2.20;;;23.40;62.00;;;;;;5017866;28;20180;-9
2022/06/20 01:15:55;;;;;;;5.50;2.50;;;23.40;62.00;;;;;;5019409;28;20170;-9
2022/06/20 01:18:33;;;;;;;5.63;1.70;;;23.40;62.00;;;;;;5019378;28;20559;-11
2022/06/20 01:21:02;;;;;;;4.17;1.50;;;23.40;61.80;;;;;;5019031;28;20244;-10
2022/06/20 01:24:10;;;;;;;4.80;2.23;;;23.50;61.40;;;;;;5018901;28;20277;-10
2022/06/20 01:26:55;;;;;;;4.37;2.23;;;23.50;61.30;;;;;;5018693;28;20261;-10
2022/06/20 01:29:22;;;;;;;4.50;2.17;;;23.40;61.80;;;;;;5019049;28;20223;-10
2022/06/20 01:31:53;;;;;;;5.83;1.73;;;23.40;62.00;;;;;;5018046;28;20181;-12
2022/06/20 01:34:20;;;;;;;5.50;2.50;;;23.40;62.30;;;;;;5018898;28;20154;-11
2022/06/20 01:39:40;;;;;;;3.67;1.70;;;23.40;62.70;;;;;;5018575;28;20177;-10
2022/06/20 01:42:23;;;;;;;4.33;2.10;;;23.30;63.00;;;;;;5018509;28;20454;-11
2022/06/20 01:44:57;;;;;;;5.83;2.30;;;23.30;63.30;;;;;;5018444;28;20157;-11
2022/06/20 01:47:23;;;;;;;3.83;2.00;;;23.30;63.70;;;;;;5018358;28;20285;-9
2022/06/20 01:49:52;;;;;;;5.93;2.63;;;23.30;63.60;;;;;;5018757;28;20261;-10
2022/06/20 01:52:45;;;;;;;3.60;2.17;;;23.30;63.80;;;;;;5018078;28;20575;-10
2022/06/20 01:55:16;;;;;;;2.80;1.53;;;23.30;64.20;;;;;;5017479;28;20205;-10
2022/06/20 01:57:44;;;;;;;4.60;2.20;;;23.20;64.60;;;;;;5017759;28;20174;-11
2022/06/20 02:00:13;;;;;;;4.43;2.33;;;23.20;64.80;;;;;;5018085;28;20196;-9
2022/06/20 02:02:42;;;;;;;4.23;2.50;;;23.10;65.20;;;;;;5017861;28;20182;-10
2022/06/20 02:05:12;;;;;;;4.27;2.30;;;23.10;65.30;;;;;;5017157;28;20320;-10
2022/06/20 02:07:40;;;;;;;4.77;2.57;;;23.10;65.80;;;;;;5016907;28;20228;-12
2022/06/20 02:10:17;;;;;;;5.20;2.97;;;23.10;66.00;;;;;;5017802;28;20445;-10
2022/06/20 02:12:44;;;;;;;3.67;2.20;;;23.10;66.10;;;;;;5016932;28;20165;-10
2022/06/20 02:15:16;;;;;;;4.03;2.80;;;23.10;66.80;;;;;;5016821;28;20211;-11
2022/06/20 02:17:43;;;;;;;5.57;2.83;;;23.10;66.70;;;;;;5018056;28;20188;-10
2022/06/20 02:20:13;;;;;;;4.57;2.87;;;23.10;67.00;;;;;;5017918;28;20323;-10
2022/06/20 02:22:40;;;;;;;5.30;2.90;;;23.00;67.00;;;;;;5016926;28;20173;-10
2022/06/20 02:25:10;;;;;;;4.97;2.37;;;23.00;67.40;;;;;;5017033;28;20157;-11
2022/06/20 02:27:50;;;;;;;5.00;2.40;;;23.00;67.60;;;;;;5017481;28;20247;-10
2022/06/20 02:30:16;;;;;;;6.87;2.60;;;23.00;67.60;;;;;;5017776;28;20177;-10
2022/06/20 02:32:46;;;;;;;5.87;2.90;;;23.00;67.80;;;;;;5017727;28;20173;-11
2022/06/20 02:35:16;;;;;;;5.07;2.10;;;22.90;68.00;;;;;;5017774;28;20250;-11
2022/06/20 02:37:43;;;;;;;1.90;1.50;;;23.00;67.80;;;;;;5017491;28;20177;-11
2022/06/20 02:40:12;;;;;;;2.63;1.20;;;23.00;67.50;;;;;;5018010;28;20158;-11
2022/06/20 02:42:46;;;;;;;2.03;1.30;;;23.00;66.40;;;;;;5017291;28;20663;-11
2022/06/20 02:45:13;;;;;;;2.13;1.30;;;23.10;65.50;;;;;;5017622;28;20177;-10
2022/06/20 02:47:44;;;;;;;2.37;1.57;;;23.30;64.80;;;;;;5017012;28;20213;-10
2022/06/20 02:50:12;;;;;;;1.93;1.30;;;23.30;64.20;;;;;;5016983;28;20271;-11
2022/06/20 02:52:49;;;;;;;2.20;1.20;;;23.40;63.60;;;;;;5017572;28;20192;-10
2022/06/20 02:55:17;;;;;;;2.07;1.10;;;23.50;63.50;;;;;;5017028;28;20181;-10
2022/06/20 02:57:51;;;;;;;3.20;1.20;;;23.50;63.30;;;;;;5017049;28;20574;-10
2022/06/20 03:00:21;;;;;;;3.43;1.97;;;23.60;62.50;;;;;;5017582;28;20255;-10
2022/06/20 03:02:53;;;;;;;2.57;1.30;;;23.60;62.40;;;;;;5016799;28;20172;-10
2022/06/20 03:05:20;;;;;;;3.17;1.27;;;23.70;62.80;;;;;;5017104;28;20240;-9
2022/06/20 03:07:49;;;;;;;5.40;2.50;;;23.70;61.80;;;;;;5017468;28;20225;-10
2022/06/20 03:10:24;;;;;;;3.83;1.47;;;23.70;62.60;;;;;;5016675;28;20470;-9
2022/06/20 03:12:54;;;;;;;3.17;1.40;;;23.70;61.50;;;;;;5016666;28;20180;-11
2022/06/20 03:15:20;;;;;;;4.17;1.80;;;23.70;61.60;;;;;;5016500;28;20649;-11
2022/06/20 03:17:49;;;;;;;1.33;1.13;;;23.70;61.80;;;;;;5016209;28;20560;-11
2022/06/20 03:20:17;;;;;;;3.67;1.57;;;23.60;61.80;;;;;;5017262;28;20543;-11
2022/06/20 03:22:57;;;;;;;2.63;1.73;;;23.70;62.10;;;;;;5016814;28;20205;-11
2022/06/20 03:25:23;;;;;;;2.77;1.40;;;23.40;64.20;;;;;;5016695;28;20201;-12
2022/06/20 03:27:52;;;;;;;5.93;1.90;;;23.20;65.50;;;;;;5017159;28;20232;-11
2022/06/20 03:30:18;;;;;;;3.07;1.47;;;23.10;66.40;;;;;;5017062;28;20201;-12
2022/06/20 03:32:45;;;;;;;4.23;1.70;;;23.10;65.30;;;;;;5016921;28;20161;-9
2022/06/20 03:35:10;;;;;;;3.50;1.80;;;23.10;66.00;;;;;;5018292;28;20274;-10
2022/06/20 03:37:39;;;;;;;5.13;1.80;;;23.10;65.40;;;;;;5020531;28;20209;-10
2022/06/20 03:40:05;;;;;;;4.13;1.93;;;23.10;66.00;;;;;;5020719;28;20225;-10
2022/06/20 03:42:31;;;;;;;2.90;2.20;;;23.00;65.90;;;;;;5020587;28;20606;-12
2022/06/20 03:44:58;;;;;;;2.87;1.50;;;23.00;65.60;;;;;;5019312;28;20188;-11
2022/06/20 03:47:32;;;;;;;3.37;1.40;;;23.00;66.10;;;;;;5020357;28;20201;-10
2022/06/20 03:50:24;;;;;;;5.57;1.97;;;22.90;66.40;;;;;;5020017;28;20279;-11
2022/06/20 03:53:04;;;;;;;3.43;2.07;;;22.80;66.70;;;;;;5011960;28;20185;-10
2022/06/20 03:55:34;;;;;;;2.83;1.47;;;22.80;67.30;;;;;;5019971;28;20165;-10
2022/06/20 03:58:09;;;;;;;2.60;1.43;;;22.80;67.00;;;;;;5019656;28;20277;-9
2022/06/20 04:00:49;;;;;;;2.67;1.20;;;22.80;66.10;;;;;;5019397;28;20172;-9
2022/06/20 04:03:24;;;;;;;5.93;2.20;;;22.80;66.50;;;;;;5019427;28;20180;-11
2022/06/20 04:06:06;;;;;;;2.97;1.47;;;22.70;67.20;;;;;;5019454;28;20468;-10
2022/06/20 04:11:59;;;;;;;4.97;2.27;;;22.70;67.10;;;;;;4959740;28;20172;-10
2022/06/20 04:14:47;;;;;;;2.83;1.70;;;22.60;67.20;;;;;;4957712;29;20278;-11
2022/06/20 04:20:37;;;;;;;6.13;1.90;;;22.60;67.60;;;;;;5019894;28;20232;-11
2022/06/20 04:23:10;;;;;;;7.77;2.53;;;22.50;67.60;;;;;;5019969;28;20312;-11
2022/06/20 04:25:45;;;;;;;3.67;1.80;;;22.50;67.60;;;;;;5019441;28;20507;-10
2022/06/20 04:28:11;;;;;;;6.83;2.20;;;22.50;68.00;;;;;;5019087;28;20184;-10
2022/06/20 04:30:46;;;;;;;4.50;2.00;;;22.50;68.00;;;;;;5018836;28;20243;-10
2022/06/20 04:33:14;;;;;;;6.37;2.27;;;22.40;67.80;;;;;;5018544;28;20270;-11
2022/06/20 04:35:48;;;;;;;4.70;1.93;;;22.40;67.80;;;;;;5019746;28;20248;-11
2022/06/20 04:38:22;;;;;;;4.07;2.20;;;22.40;68.10;;;;;;5019706;28;20567;-10
2022/06/20 04:41:02;;;;;;;4.73;2.07;;;22.40;68.80;;;;;;5018632;28;20440;-11
2022/06/20 04:43:42;;;;;;;4.00;2.10;;;22.20;69.00;;;;;;5018323;28;20184;-11
2022/06/20 04:46:46;;;;;;;4.83;2.00;;;22.20;69.40;;;;;;5017722;28;20205;-10
2022/06/20 04:49:13;;;;;;;5.10;1.97;;;22.20;69.60;;;;;;5011562;28;20201;-11
2022/06/20 04:51:40;;;;;;;4.80;1.67;;;22.20;70.20;;;;;;5018265;28;20177;-11
2022/06/20 04:54:12;;;;;;;6.63;2.20;;;22.20;70.60;;;;;;5018089;28;20175;-9
2022/06/20 04:56:39;;;;;;;3.90;2.10;;;22.10;71.10;;;;;;5018567;28;20170;-10
2022/06/20 04:59:09;;;;;;;3.80;2.30;;;22.10;71.30;;;;;;5019061;28;20169;-11
2022/06/20 05:01:36;;;;;;;7.20;2.23;;;22.20;71.50;;;;;;5018143;28;20185;-11
2022/06/20 05:04:18;;;;;;;4.17;2.10;;;22.20;72.40;;;;;;5018344;28;20180;-11
2022/06/20 05:06:43;;;;;;;6.57;2.10;;;22.10;71.80;;;;;;5017742;28;20247;-9
2022/06/20 05:09:28;;;;;;;4.57;1.87;;;22.10;72.60;;;;;;5018102;28;20182;-12
2022/06/20 05:12:02;;;;;;;7.17;2.20;;;22.10;72.90;;;;;;5017232;28;20183;-11
2022/06/20 05:14:39;;;;;;;5.57;2.17;;;22.10;73.40;;;;;;5017383;28;20184;-10
2022/06/20 05:17:18;;;;;;;4.57;2.13;;;22.10;74.00;;;;;;5016819;28;20260;-10
2022/06/20 05:19:48;;;;;;;6.10;2.00;;;22.10;73.70;;;;;;5016933;28;20174;-10
2022/06/20 05:22:24;;;;;;;6.73;2.43;;;22.10;74.20;;;;;;5016868;28;20182;-10
2022/06/20 05:24:52;;;;;;;5.83;2.47;;;22.10;74.30;;;;;;5017164;28;20276;-11
2022/06/20 05:27:22;;;;;;;5.23;2.13;;;22.10;74.90;;;;;;5017368;28;20201;-11
2022/06/20 05:29:51;;;;;;;5.43;2.03;;;22.10;75.20;;;;;;5016980;28;20218;-11
2022/06/20 05:32:35;;;;;;;6.97;2.40;;;22.10;75.40;;;;;;5016294;28;20180;-9
2022/06/20 05:35:07;;;;;;;3.23;2.10;;;22.10;75.90;;;;;;5017643;28;20165;-10
2022/06/20 05:37:58;;;;;;;4.83;2.37;;;22.10;76.00;;;;;;5017354;28;20161;-10
2022/06/20 05:40:36;;;;;;;5.93;2.07;;;22.10;76.10;;;;;;5016967;28;20528;-10
2022/06/20 05:43:02;;;;;;;3.37;1.77;;;22.10;76.30;;;;;;5016635;28;20185;-10
2022/06/20 05:45:30;;;;;;;5.77;2.30;;;22.10;75.90;;;;;;5016593;28;20177;-10
2022/06/20 05:47:59;;;;;;;5.43;2.40;;;22.10;76.40;;;;;;5017272;28;20225;-11
2022/06/20 05:50:48;;;;;;;5.73;2.20;;;22.10;76.20;;;;;;5017037;28;20157;-11
2022/06/20 05:53:26;;;;;;;2.97;1.77;;;22.10;76.40;;;;;;5016325;28;20190;-12
2022/06/20 05:55:55;;;;;;;6.10;2.47;;;22.10;76.50;;;;;;5016141;28;20174;-11
2022/06/20 05:58:31;;;;;;;5.93;2.23;;;22.20;76.60;;;;;;5016789;28;20586;-11
2022/06/20 06:01:04;;;;;;;4.57;2.00;;;22.20;76.20;;;;;;5016669;28;20204;-10
2022/06/20 06:03:44;;;;;;;6.73;1.70;;;22.20;76.30;;;;;;5016518;28;20224;-10
2022/06/20 06:06:23;;;;;;;7.17;2.57;;;22.20;76.30;;;;;;5016114;28;20197;-10
2022/06/20 06:09:00;;;;;;;4.47;2.00;;;22.20;76.20;;;;;;5016079;28;20690;-11
2022/06/20 06:11:29;;;;;;;4.13;1.83;;;22.20;76.40;;;;;;5016640;28;20255;-10
2022/06/20 06:14:02;;;;;;;6.27;2.13;;;22.20;76.30;;;;;;5016506;28;20254;-10
2022/06/20 06:16:48;;;;;;;8.97;2.40;;;22.20;76.10;;;;;;5016344;28;20177;-9
2022/06/20 06:19:26;;;;;;;5.47;1.90;;;22.20;76.30;;;;;;5015253;28;20180;-10
2022/06/20 06:21:55;;;;;;;5.17;2.20;;;22.20;76.00;;;;;;5016042;28;20362;-10
2022/06/20 06:24:24;;;;;;;3.27;1.70;;;22.20;76.10;;;;;;5015812;28;20170;-9
2022/06/20 06:26:52;;;;;;;4.63;1.90;;;22.20;76.00;;;;;;5014625;28;20509;-11
2022/06/20 06:29:23;;;;;;;5.30;2.20;;;22.10;76.10;;;;;;5015382;28;20213;-10
2022/06/20 06:31:56;;;;;;;5.23;2.17;;;22.20;76.20;;;;;;5015106;28;20177;-11
2022/06/20 06:34:36;;;;;;;4.30;1.83;;;22.20;76.20;;;;;;5015465;28;20173;-10
2022/06/20 06:37:08;;;;;;;5.97;1.87;;;22.20;76.10;;;;;;5015536;28;20248;-11
2022/06/20 06:39:51;;;;;;;7.23;2.10;;;22.20;76.00;;;;;;5015583;28;20481;-11
2022/06/20 06:42:17;;;;;;;3.33;1.73;;;22.20;75.60;;;;;;5015040;28;20578;-11
2022/06/20 06:44:47;;;;;;;7.53;2.37;;;22.20;75.30;;;;;;5014708;28;20181;-10
2022/06/20 06:47:38;;;;;;;2.93;1.83;;;22.20;75.10;;;;;;5015201;28;20209;-11
2022/06/20 06:50:41;;;;;;;6.90;2.13;;;22.20;75.10;;;;;;5014371;28;20228;-12
2022/06/20 06:53:25;;;;;;;5.47;1.97;;;22.20;74.60;;;;;;5014576;28;20235;-12
2022/06/20 06:55:57;;;;;;;5.27;2.43;;;22.20;74.30;;;;;;5014757;28;20169;-11
2022/06/20 06:58:33;;;;;;;6.33;2.30;;;22.20;74.40;;;;;;5014613;28;20235;-10
2022/06/20 07:01:14;;;;;;;7.20;2.80;;;22.20;74.90;;;;;;5014495;28;20185;-10
2022/06/20 07:03:51;;;;;;;7.47;2.53;;;22.20;75.10;;;;;;5015324;28;20162;-10
2022/06/20 07:06:28;;;;;;;3.90;2.10;;;22.20;74.80;;;;;;5015598;28;20193;-11
2022/06/20 07:09:13;;;;;;;4.00;1.53;;;22.20;74.70;;;;;;5015347;28;20546;-11
2022/06/20 07:12:01;;;;;;;7.10;2.33;;;22.20;73.90;;;;;;5018810;28;20184;-10
2022/06/20 07:14:29;;;;;;;5.13;2.20;;;22.30;73.70;;;;;;5017860;28;20181;-11
2022/06/20 07:17:20;;;;;;;8.40;2.53;;;22.20;73.50;;;;;;5017679;28;20462;-10
2022/06/20 07:19:49;;;;;;;5.30;2.30;;;22.20;73.80;;;;;;5018686;28;20268;-11
2022/06/20 07:22:18;;;;;;;4.83;2.20;;;22.20;73.90;;;;;;5019427;28;20552;-11
2022/06/20 07:24:47;;;;;;;7.83;2.30;;;22.20;73.90;;;;;;5018946;28;20178;-11
2022/06/20 07:27:31;;;;;;;3.93;1.73;;;22.20;74.10;;;;;;5018794;28;20224;-10
2022/06/20 07:30:02;;;;;;;4.53;2.20;;;22.20;73.90;;;;;;5019061;28;20164;-10
2022/06/20 07:32:35;;;;;;;5.63;1.70;;;22.20;73.50;;;;;;5018225;28;20173;-10
2022/06/20 07:35:09;;;;;;;3.73;1.93;;;22.20;72.90;;;;;;5019226;28;20251;-11
2022/06/20 07:37:41;;;;;;;8.57;1.80;;;22.30;72.70;;;;;;5018750;28;20169;-11
2022/06/20 07:40:22;;;;;;;5.40;1.70;;;22.30;72.40;;;;;;5019226;28;20164;-11
2022/06/20 07:42:54;;;;;;;5.20;2.13;;;22.40;72.00;;;;;;5019283;28;20536;-12
2022/06/20 07:45:42;;;;;;;8.70;2.30;;;22.50;71.80;;;;;;5018513;28;20183;-11
2022/06/20 07:48:19;;;;;;;4.73;1.73;;;22.50;72.60;;;;;;5018558;28;20205;-10
2022/06/20 07:50:59;;;;;;;9.03;1.90;;;22.50;72.00;;;;;;5018804;28;20178;-10
2022/06/20 07:53:52;;;;;;;7.03;2.07;;;22.50;71.30;;;;;;5019174;28;20200;-10
2022/06/20 07:56:26;;;;;;;5.23;1.80;;;22.60;71.20;;;;;;5018979;28;20304;-11
2022/06/20 07:58:57;;;;;;;7.97;2.33;;;22.60;70.40;;;;;;5017444;28;20471;-11
2022/06/20 08:01:30;;;;;;;3.27;1.53;;;22.70;70.70;;;;;;5018336;28;20177;-11
2022/06/20 08:03:57;;;;;;;5.47;2.10;;;22.70;70.30;;;;;;5018770;28;20193;-10
2022/06/20 08:06:44;;;;;;;3.87;1.67;;;22.80;69.50;;;;;;5017156;28;20282;-9
2022/06/20 08:09:26;;;;;;;3.53;1.43;;;22.80;68.10;;;;;;5015479;28;20411;-10
2022/06/20 08:11:54;;;;;;;4.97;2.00;;;23.10;67.60;;;;;;5012357;28;20167;-11
2022/06/20 08:14:38;;;;;;;3.87;1.57;;;23.40;64.80;;;;;;5011747;28;20196;-11
2022/06/20 08:17:10;;;;;;;3.83;1.70;;;23.70;61.60;;;;;;5012716;28;20173;-10
2022/06/20 08:19:38;;;;;;;3.83;1.70;;;23.90;60.10;;;;;;5012082;28;20216;-10
2022/06/20 08:22:18;;;;;;;4.07;1.60;;;24.10;59.40;;;;;;5009576;28;20339;-10
2022/06/20 08:24:56;;;;;;;4.03;1.80;;;24.30;58.50;;;;;;5011390;28;20192;-10
2022/06/20 08:27:28;;;;;;;3.50;1.67;;;24.50;57.90;;;;;;5011840;28;20228;-11
2022/06/20 08:30:26;;;;;;;3.20;1.43;;;24.80;57.10;;;;;;5011793;28;20459;-9
2022/06/20 08:33:07;;;;;;;2.90;1.40;;;25.00;56.40;;;;;;5010431;28;20269;-12
2022/06/20 08:35:47;;;;;;;3.10;1.60;;;25.20;55.80;;;;;;5012209;28;20204;-11
2022/06/20 08:38:39;;;;;;;2.67;1.60;;;25.20;55.50;;;;;;5010473;28;20157;-11
2022/06/20 08:41:20;;;;;;;3.10;1.50;;;25.10;55.60;;;;;;5009632;28;20189;-11
2022/06/20 08:44:02;;;;;;;3.17;1.53;;;25.10;55.80;;;;;;5012872;28;20401;-10
2022/06/20 08:46:40;;;;;;;2.80;1.40;;;25.10;55.60;;;;;;5011511;28;20207;-11
2022/06/20 08:49:35;;;;;;;3.23;1.40;;;25.10;55.50;;;;;;5011809;28;20526;-9
2022/06/20 08:52:20;;;;;;;5.13;1.70;;;25.10;55.40;;;;;;5010543;28;20181;-10
2022/06/20 08:55:36;;;;;;;5.43;1.80;;;25.10;55.40;;;;;;5011554;28;20170;-11
2022/06/20 08:58:22;;;;;;;4.37;1.43;;;25.10;55.40;;;;;;4971379;28;20220;-10
2022/06/20 09:01:32;;;;;;;2.77;1.30;;;25.10;55.50;;;;;;5009477;28;20174;-9
2022/06/20 09:04:40;;;;;;;3.57;1.63;;;25.00;55.50;;;;;;4991281;28;20309;-11
2022/06/20 09:07:14;;;;;;;3.43;1.40;;;25.00;55.60;;;;;;5008869;28;20267;-11
2022/06/20 09:09:49;;;;;;;4.20;1.60;;;24.90;55.60;;;;;;5008984;28;20623;-12
2022/06/20 09:12:42;;;;;;;5.53;3.17;;;24.90;55.60;;;;;;5009375;28;20165;-11
2022/06/20 09:15:26;;;;;;;4.40;1.60;;;24.90;55.80;;;;;;5009448;28;20168;-11
2022/06/20 09:17:58;;;;;;;3.87;1.90;;;25.00;55.40;;;;;;5010895;28;20205;-11
2022/06/20 09:20:45;;;;;;;2.90;1.60;;;25.20;55.10;;;;;;5010612;28;20177;-10
2022/06/20 09:23:47;;;;;;;2.85;1.40;;;25.40;55.10;;;;;;5010644;28;20351;-10
2022/06/20 09:26:38;;;;;;;3.72;1.63;;;25.60;54.40;;;;;;5011253;28;20201;-11
2022/06/20 09:29:10;;;;;;;4.68;1.75;;;25.70;54.10;;;;;;5009651;28;20173;-9
2022/06/20 09:31:48;;;;;;;2.75;1.42;;;25.70;53.90;;;;;;5011166;28;20559;-11
2022/06/20 09:34:35;;;;;;;3.67;1.30;;;25.70;53.90;;;;;;5010913;28;20525;-10
2022/06/20 09:37:20;;;;;;;3.67;1.73;;;25.60;54.00;;;;;;5008874;28;20461;-10
2022/06/20 09:40:01;;;;;;;1.93;1.30;;;25.50;54.00;;;;;;5012722;28;20443;-10
2022/06/20 09:42:39;;;;;;;2.37;1.23;;;25.50;54.10;;;;;;5016259;28;20169;-11
2022/06/20 09:45:35;;;;;;;4.53;1.80;;;25.60;54.00;;;;;;5014289;28;20545;-11
2022/06/20 09:48:07;;;;;;;4.33;1.60;;;25.60;54.00;;;;;;5015407;28;20551;-10
2022/06/20 09:50:54;;;;;;;3.83;1.43;;;25.50;54.00;;;;;;5016384;28;20273;-11
2022/06/20 09:53:29;;;;;;;3.83;1.60;;;25.50;53.80;;;;;;5016321;28;20264;-12
2022/06/20 09:56:07;;;;;;;3.97;1.57;;;25.50;54.00;;;;;;5014668;28;20173;-11
2022/06/20 09:58:44;;;;;;;2.70;1.40;;;25.40;53.90;;;;;;5009232;28;20161;-10
2022/06/20 10:01:18;;;;;;;3.03;1.60;;;25.40;54.00;;;;;;5007838;28;20265;-11
2022/06/20 10:04:09;;;;;;;2.43;1.30;;;25.40;54.10;;;;;;5009095;28;20166;-11
2022/06/20 10:07:06;;;;;;;2.53;1.23;;;25.50;54.40;;;;;;5009920;28;20591;-11
2022/06/20 10:09:40;;;;;;;3.40;1.50;;;25.50;53.80;;;;;;5008200;28;20400;-10
2022/06/20 10:13:04;;;;;;;1.93;1.23;;;25.60;53.80;;;;;;5009855;28;20192;-10
2022/06/20 10:15:39;;;;;;;2.47;1.40;;;25.60;53.70;;;;;;4971893;28;20414;-10
2022/06/20 10:18:27;;;;;;;2.70;1.60;;;25.60;53.70;;;;;;5008050;28;20174;-9
2022/06/20 10:20:56;;;;;;;3.47;1.73;;;25.60;53.70;;;;;;5008721;28;20177;-11
2022/06/20 10:23:33;;;;;;;1.83;1.20;;;25.60;53.60;;;;;;5008080;28;20534;-11
2022/06/20 10:26:21;;;;;;;3.40;1.40;;;25.60;53.60;;;;;;5008938;28;20554;-10
2022/06/20 10:29:21;;;;;;;2.70;1.43;;;25.60;53.50;;;;;;5008004;28;20482;-10
2022/06/20 10:31:58;;;;;;;2.03;1.27;;;25.60;53.50;;;;;;5006895;28;20383;-11
2022/06/20 10:34:49;;;;;;;2.63;1.40;;;25.60;53.50;;;;;;5007742;28;20200;-10
2022/06/20 10:37:54;;;;;;;2.00;1.23;;;25.60;53.50;;;;;;5006832;28;20211;-11
2022/06/20 10:40:32;;;;;;;1.63;1.20;;;25.60;53.50;;;;;;5007031;28;20194;-11
2022/06/20 10:43:41;;;;;;;2.30;1.30;;;25.60;53.40;;;;;;5008609;28;20173;-11
2022/06/20 10:46:10;;;;;;;2.43;1.40;;;25.60;53.40;;;;;;5005306;28;20773;-11
2022/06/20 10:49:15;;;;;;;3.23;1.50;;;25.60;53.40;;;;;;5008467;28;20214;-9
2022/06/20 10:52:10;;;;;;;2.37;1.40;;;25.60;53.20;;;;;;5006477;28;20292;-9
2022/06/20 10:54:44;;;;;;;5.70;1.67;;;25.60;52.60;;;;;;5007901;28;20169;-10
2022/06/20 10:57:30;;;;;;;3.27;1.40;;;25.60;52.20;;;;;;5008345;28;20435;-10
2022/06/20 10:59:59;;;;;;;2.30;1.30;;;25.60;52.60;;;;;;5006491;28;20169;-10
2022/06/20 11:03:01;;;;;;;1.83;1.10;;;25.60;53.20;;;;;;5005980;28;20169;-10
2022/06/20 11:06:07;;;;;;;4.80;1.70;;;25.60;53.20;;;;;;5006491;28;20365;-11
2022/06/20 11:08:42;;;;;;;5.67;1.80;;;25.60;53.10;;;;;;5005489;28;20185;-9
2022/06/20 11:11:33;;;;;;;2.57;1.40;;;25.60;53.10;;;;;;5007741;28;20165;-10
2022/06/20 11:14:11;;;;;;;3.87;1.67;;;25.70;53.10;;;;;;5008123;28;20166;-11
2022/06/20 11:17:06;;;;;;;1.93;1.27;;;25.70;53.00;;;;;;5007124;28;20173;-10
2022/06/20 11:19:32;;;;;;;2.73;1.50;;;25.70;53.00;;;;;;5004485;28;20186;-10
2022/06/20 11:22:05;;;;;;;3.67;1.40;;;25.70;52.90;;;;;;5014700;28;20172;-11
2022/06/20 11:25:08;;;;;;;3.30;1.50;;;25.60;51.90;;;;;;5014236;28;20166;-11
2022/06/20 11:27:59;;;;;;;2.23;1.43;;;25.60;52.60;;;;;;5014457;28;20212;-12
2022/06/20 11:30:54;;;;;;;2.00;1.30;;;25.60;52.70;;;;;;5013666;28;20158;-10
2022/06/20 11:34:03;;;;;;;2.07;1.30;;;25.70;52.70;;;;;;5014219;28;20628;-12
2022/06/20 11:36:56;;;;;;;1.93;1.20;;;25.70;52.70;;;;;;5014753;28;20174;-9
2022/06/20 11:39:49;;;;;;;5.03;1.60;;;25.70;52.60;;;;;;5014080;28;20486;-11
2022/06/20 11:42:23;;;;;;;2.27;1.40;;;25.70;52.40;;;;;;5013777;28;20265;-11
2022/06/20 11:45:15;;;;;;;3.07;1.10;;;25.70;52.70;;;;;;5012803;28;20204;-9
2022/06/20 11:47:44;;;;;;;2.87;1.40;;;25.70;52.30;;;;;;5013509;28;20583;-9
2022/06/20 11:50:30;;;;;;;3.73;1.37;;;25.60;52.50;;;;;;5014485;28;20182;-11
2022/06/20 11:53:17;;;;;;;4.47;1.60;;;25.60;52.40;;;;;;5014622;28;20585;-10
2022/06/20 11:56:13;;;;;;;3.90;1.30;;;25.60;52.50;;;;;;5015201;28;20189;-10
2022/06/20 11:59:04;;;;;;;2.80;1.30;;;25.60;52.50;;;;;;5017225;28;20178;-12
2022/06/20 12:01:58;;;;;;;3.57;1.77;;;25.60;52.50;;;;;;5017269;28;20201;-10
2022/06/20 12:04:46;;;;;;;1.90;1.20;;;25.60;52.20;;;;;;5016844;28;20257;-13
2022/06/20 12:07:27;;;;;;;2.23;1.30;;;25.60;52.30;;;;;;5017482;28;20204;-10
2022/06/20 12:10:01;;;;;;;2.70;1.50;;;25.60;52.40;;;;;;5017332;28;20201;-11
2022/06/20 12:12:54;;;;;;;2.63;1.40;;;25.60;52.20;;;;;;5016934;28;20243;-10
2022/06/20 12:15:37;;;;;;;4.70;1.83;;;25.60;52.20;;;;;;5016847;28;20443;-10
2022/06/20 12:18:11;;;;;;;3.17;1.60;;;25.60;50.10;;;;;;5017563;28;20162;-11
2022/06/20 12:23:40;;;;;;;3.53;1.57;;;25.60;52.20;;;;;;5017346;28;20181;-10
2022/06/20 12:26:11;;;;;;;3.00;1.57;;;25.60;52.30;;;;;;5017686;28;20506;-10
2022/06/20 12:28:41;;;;;;;4.83;1.67;;;25.60;50.80;;;;;;5016123;28;20180;-11
2022/06/20 12:31:18;;;;;;;10.13;2.17;;;25.60;51.90;;;;;;5017237;28;20177;-11
2022/06/20 12:33:56;;;;;;;5.93;1.80;;;25.40;51.70;;;;;;5017196;28;20539;-9
2022/06/20 12:36:33;;;;;;;5.77;1.70;;;25.40;51.80;;;;;;5016124;28;20183;-10
2022/06/20 12:39:16;;;;;;;6.93;2.07;;;25.40;51.20;;;;;;5017219;28;20165;-11
2022/06/20 12:41:46;;;;;;;7.07;1.97;;;25.30;51.60;;;;;;4997752;28;20178;-11
2022/06/20 12:44:35;;;;;;;4.40;2.00;;;25.20;51.40;;;;;;4997262;28;20174;-10
2022/06/20 12:47:13;;;;;;;6.33;2.07;;;25.20;51.50;;;;;;4997716;28;20204;-11
2022/06/20 12:50:01;;;;;;;3.20;1.73;;;25.20;51.10;;;;;;4996721;28;20280;-11
2022/06/20 12:52:46;;;;;;;3.27;1.90;;;25.20;50.80;;;;;;4996461;28;20607;-11
2022/06/20 12:55:23;;;;;;;4.33;1.60;;;25.20;51.20;;;;;;4997706;28;20190;-12
2022/06/20 12:58:05;;;;;;;4.90;1.93;;;25.30;50.60;;;;;;4997336;28;20653;-10
2022/06/20 13:01:19;;;;;;;4.80;2.10;;;25.20;50.90;;;;;;4997177;28;20256;-11
2022/06/20 13:04:10;;;;;;;4.30;1.77;;;25.20;50.80;;;;;;4966616;28;20197;-10
2022/06/20 13:06:53;;;;;;;4.07;1.77;;;25.20;50.90;;;;;;4996939;28;20222;-11
2022/06/20 13:09:57;;;;;;;5.60;1.93;;;25.20;51.00;;;;;;4996873;28;20169;-11
2022/06/20 13:12:53;;;;;;;5.00;1.90;;;25.20;50.80;;;;;;4997494;28;20205;-10
2022/06/20 13:15:41;;;;;;;2.90;1.67;;;25.20;51.00;;;;;;4995828;28;20225;-12
2022/06/20 13:18:40;;;;;;;6.50;2.00;;;25.20;50.90;;;;;;4996670;28;20185;-11
2022/06/20 13:21:17;;;;;;;4.70;1.73;;;25.20;51.00;;;;;;4996272;28;20229;-10
2022/06/20 13:24:08;;;;;;;4.97;1.80;;;25.20;50.90;;;;;;4995905;28;20181;-10
2022/06/20 13:27:01;;;;;;;5.73;1.90;;;25.20;50.90;;;;;;4996545;28;20206;-11
2022/06/20 13:29:58;;;;;;;2.63;1.70;;;25.20;51.10;;;;;;4995896;28;20284;-10
2022/06/20 13:32:38;;;;;;;3.83;1.90;;;25.10;50.40;;;;;;4996163;28;20684;-11
2022/06/20 13:35:22;;;;;;;3.63;1.83;;;25.10;50.50;;;;;;4996624;28;20165;-10
2022/06/20 13:38:14;;;;;;;5.93;1.77;;;25.10;50.80;;;;;;4996839;28;20170;-10
2022/06/20 13:40:46;;;;;;;3.57;1.60;;;25.10;50.80;;;;;;4996237;28;20188;-11
2022/06/20 13:43:24;;;;;;;4.97;2.00;;;25.10;50.90;;;;;;4996269;28;20163;-12
2022/06/20 13:46:22;;;;;;;3.47;1.90;;;25.10;50.70;;;;;;4995111;28;20182;-9
2022/06/20 13:49:24;;;;;;;5.03;2.13;;;25.10;50.90;;;;;;4995451;28;20706;-10
2022/06/20 13:51:55;;;;;;;6.53;1.97;;;25.10;50.40;;;;;;4985472;28;20288;-11
2022/06/20 13:54:34;;;;;;;4.73;1.77;;;25.10;50.80;;;;;;4996396;28;20204;-11
2022/06/20 13:57:14;;;;;;;5.67;1.73;;;25.10;50.80;;;;;;4993783;28;20530;-10